sensor_id;sensor_type;location;lat;lon;timestamp;temperature;humidity
70475;DHT22;57944;48.722;9.316;2023-05-07T00:00:15;13.40;99.90
70475;DHT22;57944;48.722;9.316;2023-05-07T00:02:46;13.30;99.90
70475;DHT22;57944;48.722;9.316;2023-05-07T00:05:16;13.30;99.90
70475;DHT22;57944;48.722;9.316;2023-05-07T00:07:49;13.30;99.90
70475;DHT22;57944;48.722;9.316;2023-05-07T00:10:19;13.30;99.90
70475;DHT22;57944;48.722;9.316;2023-05-07T00:12:49;13.20;99.90
70475;DHT22;57944;48.722;9.316;2023-05-07T00:15:19;13.10;99.90
70475;DHT22;57944;48.722;9.316;2023-05-07T00:17:49;12.90;99.90
70475;DHT22;57944;48.722;9.316;2023-05-07T00:20:19;12.90;99.90
70475;DHT22;57944;48.722;9.316;2023-05-07T00:22:52;12.80;99.90
70475;DHT22;57944;48.722;9.316;2023-05-07T00:25:22;12.80;99.90
70475;DHT22;57944;48.722;9.316;2023-05-07T00:27:52;12.80;99.90
70475;DHT22;57944;48.722;9.316;2023-05-07T00:30:22;12.70;99.90
70475;DHT22;57944;48.722;9.316;2023-05-07T00:32:52;12.70;99.90
70475;DHT22;57944;48.722;9.316;2023-05-07T00:35:22;12.70;99.90
70475;DHT22;57944;48.722;9.316;2023-05-07T00:37:54;12.70;99.90
70475;DHT22;57944;48.722;9.316;2023-05-07T00:40:24;12.70;99.90
70475;DHT22;57944;48.722;9.316;2023-05-07T00:42:54;12.60;99.90
70475;DHT22;57944;48.722;9.316;2023-05-07T00:45:27;12.60;99.90
70475;DHT22;57944;48.722;9.316;2023-05-07T00:47:57;12.60;99.90
70475;DHT22;57944;48.722;9.316;2023-05-07T00:50:31;12.60;99.90
70475;DHT22;57944;48.722;9.316;2023-05-07T00:53:04;12.60;99.90
70475;DHT22;57944;48.722;9.316;2023-05-07T00:55:35;12.60;99.90
70475;DHT22;57944;48.722;9.316;2023-05-07T00:58:06;12.60;99.90
70475;DHT22;57944;48.722;9.316;2023-05-07T01:00:36;12.50;99.90
70475;DHT22;57944;48.722;9.316;2023-05-07T01:03:06;12.50;99.90
70475;DHT22;57944;48.722;9.316;2023-05-07T01:05:36;12.40;99.90
70475;DHT22;57944;48.722;9.316;2023-05-07T01:08:10;12.40;99.90
70475;DHT22;57944;48.722;9.316;2023-05-07T01:10:40;12.40;99.90
70475;DHT22;57944;48.722;9.316;2023-05-07T01:13:11;12.40;99.90
70475;DHT22;57944;48.722;9.316;2023-05-07T01:15:43;12.40;99.90
70475;DHT22;57944;48.722;9.316;2023-05-07T01:18:13;12.40;99.90
70475;DHT22;57944;48.722;9.316;2023-05-07T01:20:43;12.30;99.90
70475;DHT22;57944;48.722;9.316;2023-05-07T01:23:16;12.40;99.90
70475;DHT22;57944;48.722;9.316;2023-05-07T01:25:50;12.30;99.90
70475;DHT22;57944;48.722;9.316;2023-05-07T01:28:23;12.30;99.90
70475;DHT22;57944;48.722;9.316;2023-05-07T01:30:58;12.30;99.90
70475;DHT22;57944;48.722;9.316;2023-05-07T01:33:33;12.30;99.90
70475;DHT22;57944;48.722;9.316;2023-05-07T01:36:04;12.20;99.90
70475;DHT22;57944;48.722;9.316;2023-05-07T01:38:39;12.20;99.90
70475;DHT22;57944;48.722;9.316;2023-05-07T01:41:11;12.20;99.90
70475;DHT22;57944;48.722;9.316;2023-05-07T01:43:42;12.10;99.90
70475;DHT22;57944;48.722;9.316;2023-05-07T01:46:12;12.10;99.90
70475;DHT22;57944;48.722;9.316;2023-05-07T01:48:42;12.20;99.90
70475;DHT22;57944;48.722;9.316;2023-05-07T01:51:13;12.20;99.90
70475;DHT22;57944;48.722;9.316;2023-05-07T01:53:45;12.10;99.90
70475;DHT22;57944;48.722;9.316;2023-05-07T01:56:18;12.10;99.90
70475;DHT22;57944;48.722;9.316;2023-05-07T01:58:48;12.00;99.90
70475;DHT22;57944;48.722;9.316;2023-05-07T02:01:20;11.80;99.90
70475;DHT22;57944;48.722;9.316;2023-05-07T02:03:50;11.80;99.90
70475;DHT22;57944;48.722;9.316;2023-05-07T02:06:24;11.80;99.90
70475;DHT22;57944;48.722;9.316;2023-05-07T02:09:02;11.90;99.90
70475;DHT22;57944;48.722;9.316;2023-05-07T02:11:32;11.90;99.90
70475;DHT22;57944;48.722;9.316;2023-05-07T02:14:02;11.90;99.90
70475;DHT22;57944;48.722;9.316;2023-05-07T02:16:32;11.80;99.90
70475;DHT22;57944;48.722;9.316;2023-05-07T02:19:03;11.90;99.90
70475;DHT22;57944;48.722;9.316;2023-05-07T02:21:33;11.80;99.90
70475;DHT22;57944;48.722;9.316;2023-05-07T02:24:05;11.70;99.90
70475;DHT22;57944;48.722;9.316;2023-05-07T02:26:36;11.70;99.90
70475;DHT22;57944;48.722;9.316;2023-05-07T02:29:05;11.70;99.90
70475;DHT22;57944;48.722;9.316;2023-05-07T02:31:37;11.80;99.90
70475;DHT22;57944;48.722;9.316;2023-05-07T02:34:07;11.70;99.90
70475;DHT22;57944;48.722;9.316;2023-05-07T02:36:37;11.60;99.90
70475;DHT22;57944;48.722;9.316;2023-05-07T02:39:13;11.50;99.90
70475;DHT22;57944;48.722;9.316;2023-05-07T02:41:43;11.50;99.90
70475;DHT22;57944;48.722;9.316;2023-05-07T02:44:14;11.50;99.90
70475;DHT22;57944;48.722;9.316;2023-05-07T02:46:47;11.50;99.90
70475;DHT22;57944;48.722;9.316;2023-05-07T02:49:17;11.40;99.90
70475;DHT22;57944;48.722;9.316;2023-05-07T02:51:47;11.40;99.90
70475;DHT22;57944;48.722;9.316;2023-05-07T02:54:24;11.30;99.90
70475;DHT22;57944;48.722;9.316;2023-05-07T02:56:54;11.40;99.90
70475;DHT22;57944;48.722;9.316;2023-05-07T02:59:24;11.20;99.90
70475;DHT22;57944;48.722;9.316;2023-05-07T03:01:55;11.20;99.90
70475;DHT22;57944;48.722;9.316;2023-05-07T03:04:25;11.10;99.90
70475;DHT22;57944;48.722;9.316;2023-05-07T03:06:55;11.00;99.90
70475;DHT22;57944;48.722;9.316;2023-05-07T03:09:27;11.00;99.90
70475;DHT22;57944;48.722;9.316;2023-05-07T03:11:58;11.00;99.90
70475;DHT22;57944;48.722;9.316;2023-05-07T03:14:28;10.90;99.90
70475;DHT22;57944;48.722;9.316;2023-05-07T03:16:58;10.90;99.90
70475;DHT22;57944;48.722;9.316;2023-05-07T03:19:28;10.90;99.90
70475;DHT22;57944;48.722;9.316;2023-05-07T03:21:59;10.90;99.90
70475;DHT22;57944;48.722;9.316;2023-05-07T03:24:31;10.90;99.90
70475;DHT22;57944;48.722;9.316;2023-05-07T03:27:01;10.90;99.90
70475;DHT22;57944;48.722;9.316;2023-05-07T03:29:31;10.80;99.90
70475;DHT22;57944;48.722;9.316;2023-05-07T03:32:01;10.70;99.90
70475;DHT22;57944;48.722;9.316;2023-05-07T03:34:32;10.80;99.90
70475;DHT22;57944;48.722;9.316;2023-05-07T03:37:03;10.80;99.90
70475;DHT22;57944;48.722;9.316;2023-05-07T03:39:35;10.70;99.90
70475;DHT22;57944;48.722;9.316;2023-05-07T03:42:05;10.70;99.90
70475;DHT22;57944;48.722;9.316;2023-05-07T03:44:36;10.70;99.90
70475;DHT22;57944;48.722;9.316;2023-05-07T03:47:06;10.70;99.90
70475;DHT22;57944;48.722;9.316;2023-05-07T03:49:37;10.70;99.90
70475;DHT22;57944;48.722;9.316;2023-05-07T03:52:08;10.70;99.90
70475;DHT22;57944;48.722;9.316;2023-05-07T03:54:40;10.70;99.90
70475;DHT22;57944;48.722;9.316;2023-05-07T03:57:13;10.70;99.90
70475;DHT22;57944;48.722;9.316;2023-05-07T03:59:43;10.70;99.90
70475;DHT22;57944;48.722;9.316;2023-05-07T04:02:13;10.70;99.90
70475;DHT22;57944;48.722;9.316;2023-05-07T04:04:43;10.70;99.90
70475;DHT22;57944;48.722;9.316;2023-05-07T04:07:14;10.60;99.90
70475;DHT22;57944;48.722;9.316;2023-05-07T04:09:50;10.60;99.90
70475;DHT22;57944;48.722;9.316;2023-05-07T04:12:20;10.60;99.90
70475;DHT22;57944;48.722;9.316;2023-05-07T04:14:51;10.60;99.90
70475;DHT22;57944;48.722;9.316;2023-05-07T04:17:23;10.60;99.90
70475;DHT22;57944;48.722;9.316;2023-05-07T04:19:53;10.60;99.90
70475;DHT22;57944;48.722;9.316;2023-05-07T04:22:24;10.60;99.90
70475;DHT22;57944;48.722;9.316;2023-05-07T04:24:57;10.50;99.90
70475;DHT22;57944;48.722;9.316;2023-05-07T04:27:27;10.50;99.90
70475;DHT22;57944;48.722;9.316;2023-05-07T04:29:57;10.60;99.90
70475;DHT22;57944;48.722;9.316;2023-05-07T04:32:30;10.70;99.90
70475;DHT22;57944;48.722;9.316;2023-05-07T04:35:00;10.80;99.90
70475;DHT22;57944;48.722;9.316;2023-05-07T04:37:31;10.80;99.90
70475;DHT22;57944;48.722;9.316;2023-05-07T04:40:05;11.30;99.90
70475;DHT22;57944;48.722;9.316;2023-05-07T04:42:37;11.70;99.90
70475;DHT22;57944;48.722;9.316;2023-05-07T04:45:08;12.20;99.90
70475;DHT22;57944;48.722;9.316;2023-05-07T04:47:41;12.50;99.90
70475;DHT22;57944;48.722;9.316;2023-05-07T04:50:12;12.80;99.90
70475;DHT22;57944;48.722;9.316;2023-05-07T04:52:43;12.80;99.90
70475;DHT22;57944;48.722;9.316;2023-05-07T04:55:16;12.70;99.90
70475;DHT22;57944;48.722;9.316;2023-05-07T04:57:46;12.60;99.90
70475;DHT22;57944;48.722;9.316;2023-05-07T05:00:17;12.20;99.90
70475;DHT22;57944;48.722;9.316;2023-05-07T05:02:49;12.10;99.90
70475;DHT22;57944;48.722;9.316;2023-05-07T05:05:21;12.20;99.90
70475;DHT22;57944;48.722;9.316;2023-05-07T05:07:53;12.30;99.90
70475;DHT22;57944;48.722;9.316;2023-05-07T05:10:27;12.30;99.90
70475;DHT22;57944;48.722;9.316;2023-05-07T05:15:28;12.90;99.90
70475;DHT22;57944;48.722;9.316;2023-05-07T05:18:00;13.10;99.90
70475;DHT22;57944;48.722;9.316;2023-05-07T05:20:30;13.20;99.90
70475;DHT22;57944;48.722;9.316;2023-05-07T05:23:01;13.20;99.90
70475;DHT22;57944;48.722;9.316;2023-05-07T05:25:33;13.20;99.90
70475;DHT22;57944;48.722;9.316;2023-05-07T05:28:04;13.40;99.90
70475;DHT22;57944;48.722;9.316;2023-05-07T05:30:34;14.20;99.90
70475;DHT22;57944;48.722;9.316;2023-05-07T05:33:04;15.40;99.90
70475;DHT22;57944;48.722;9.316;2023-05-07T05:35:34;16.90;99.90
70475;DHT22;57944;48.722;9.316;2023-05-07T05:38:09;18.40;99.90
70475;DHT22;57944;48.722;9.316;2023-05-07T05:40:43;20.00;99.90
70475;DHT22;57944;48.722;9.316;2023-05-07T05:43:13;21.40;99.90
70475;DHT22;57944;48.722;9.316;2023-05-07T05:45:43;22.50;99.90
70475;DHT22;57944;48.722;9.316;2023-05-07T05:48:13;23.30;99.90
70475;DHT22;57944;48.722;9.316;2023-05-07T05:50:43;24.10;99.90
70475;DHT22;57944;48.722;9.316;2023-05-07T05:53:15;24.90;99.90
70475;DHT22;57944;48.722;9.316;2023-05-07T05:55:47;25.60;99.90
70475;DHT22;57944;48.722;9.316;2023-05-07T05:58:18;26.20;99.10
70475;DHT22;57944;48.722;9.316;2023-05-07T06:03:26;26.60;96.90
70475;DHT22;57944;48.722;9.316;2023-05-07T06:05:59;27.00;96.70
70475;DHT22;57944;48.722;9.316;2023-05-07T06:08:30;27.40;95.80
70475;DHT22;57944;48.722;9.316;2023-05-07T06:11:03;27.50;94.70
70475;DHT22;57944;48.722;9.316;2023-05-07T06:13:36;27.90;94.40
70475;DHT22;57944;48.722;9.316;2023-05-07T06:16:06;28.30;93.30
70475;DHT22;57944;48.722;9.316;2023-05-07T06:18:36;28.70;93.00
70475;DHT22;57944;48.722;9.316;2023-05-07T06:21:06;28.90;92.30
70475;DHT22;57944;48.722;9.316;2023-05-07T06:23:37;28.80;91.80
70475;DHT22;57944;48.722;9.316;2023-05-07T06:26:10;28.80;91.60
70475;DHT22;57944;48.722;9.316;2023-05-07T06:28:43;28.60;91.50
70475;DHT22;57944;48.722;9.316;2023-05-07T06:31:15;28.50;91.50
70475;DHT22;57944;48.722;9.316;2023-05-07T06:33:57;28.30;92.00
70475;DHT22;57944;48.722;9.316;2023-05-07T06:36:35;28.60;91.30
70475;DHT22;57944;48.722;9.316;2023-05-07T06:39:17;28.30;91.70
70475;DHT22;57944;48.722;9.316;2023-05-07T06:41:49;29.00;90.70
70475;DHT22;57944;48.722;9.316;2023-05-07T06:44:30;29.60;90.00
70475;DHT22;57944;48.722;9.316;2023-05-07T06:47:12;29.70;88.50
70475;DHT22;57944;48.722;9.316;2023-05-07T06:49:45;29.00;89.20
70475;DHT22;57944;48.722;9.316;2023-05-07T06:52:17;27.60;89.00
70475;DHT22;57944;48.722;9.316;2023-05-07T06:54:49;26.80;91.00
70475;DHT22;57944;48.722;9.316;2023-05-07T06:57:24;26.50;91.40
70475;DHT22;57944;48.722;9.316;2023-05-07T06:59:54;26.50;91.50
70475;DHT22;57944;48.722;9.316;2023-05-07T07:02:25;25.90;92.10
70475;DHT22;57944;48.722;9.316;2023-05-07T07:04:55;26.00;92.90
70475;DHT22;57944;48.722;9.316;2023-05-07T07:07:25;26.70;92.30
70475;DHT22;57944;48.722;9.316;2023-05-07T07:09:55;27.90;91.40
70475;DHT22;57944;48.722;9.316;2023-05-07T07:12:29;28.60;90.50
70475;DHT22;57944;48.722;9.316;2023-05-07T07:14:59;29.40;89.50
70475;DHT22;57944;48.722;9.316;2023-05-07T07:17:29;30.00;88.00
70475;DHT22;57944;48.722;9.316;2023-05-07T07:25:00;33.80;78.70
70475;DHT22;57944;48.722;9.316;2023-05-07T07:27:32;33.70;78.60
70475;DHT22;57944;48.722;9.316;2023-05-07T07:30:03;33.80;77.90
70475;DHT22;57944;48.722;9.316;2023-05-07T07:32:37;34.30;75.70
70475;DHT22;57944;48.722;9.316;2023-05-07T07:35:07;34.50;74.60
70475;DHT22;57944;48.722;9.316;2023-05-07T07:37:38;35.50;73.10
70475;DHT22;57944;48.722;9.316;2023-05-07T07:40:11;35.60;71.50
70475;DHT22;57944;48.722;9.316;2023-05-07T07:42:45;36.00;71.00
70475;DHT22;57944;48.722;9.316;2023-05-07T07:45:14;35.70;69.00
70475;DHT22;57944;48.722;9.316;2023-05-07T07:47:47;35.40;69.20
70475;DHT22;57944;48.722;9.316;2023-05-07T07:50:17;35.70;68.80
70475;DHT22;57944;48.722;9.316;2023-05-07T07:53:06;35.90;67.80
70475;DHT22;57944;48.722;9.316;2023-05-07T07:55:38;35.40;68.00
70475;DHT22;57944;48.722;9.316;2023-05-07T07:58:13;36.40;67.30
70475;DHT22;57944;48.722;9.316;2023-05-07T08:00:43;36.10;65.60
70475;DHT22;57944;48.722;9.316;2023-05-07T08:03:14;35.20;66.70
70475;DHT22;57944;48.722;9.316;2023-05-07T08:05:49;35.40;67.10
70475;DHT22;57944;48.722;9.316;2023-05-07T08:08:19;34.40;68.10
70475;DHT22;57944;48.722;9.316;2023-05-07T08:10:50;35.00;68.00
70475;DHT22;57944;48.722;9.316;2023-05-07T08:13:29;36.10;66.80
70475;DHT22;57944;48.722;9.316;2023-05-07T08:15:59;36.20;64.80
70475;DHT22;57944;48.722;9.316;2023-05-07T08:18:29;36.60;64.60
70475;DHT22;57944;48.722;9.316;2023-05-07T08:23:32;39.40;58.80
70475;DHT22;57944;48.722;9.316;2023-05-07T08:26:03;39.30;59.20
70475;DHT22;57944;48.722;9.316;2023-05-07T08:28:36;39.60;59.00
70475;DHT22;57944;48.722;9.316;2023-05-07T08:31:07;40.30;57.20
70475;DHT22;57944;48.722;9.316;2023-05-07T08:33:39;40.00;56.60
70475;DHT22;57944;48.722;9.316;2023-05-07T08:36:09;38.80;57.50
70475;DHT22;57944;48.722;9.316;2023-05-07T08:38:39;38.10;58.10
70475;DHT22;57944;48.722;9.316;2023-05-07T08:41:12;35.40;61.40
70475;DHT22;57944;48.722;9.316;2023-05-07T08:43:48;35.60;62.50
70475;DHT22;57944;48.722;9.316;2023-05-07T08:46:20;36.70;61.50
70475;DHT22;57944;48.722;9.316;2023-05-07T08:48:54;38.70;59.30
70475;DHT22;57944;48.722;9.316;2023-05-07T08:51:24;40.50;57.30
70475;DHT22;57944;48.722;9.316;2023-05-07T08:53:54;41.40;55.60
70475;DHT22;57944;48.722;9.316;2023-05-07T08:56:29;42.10;54.00
70475;DHT22;57944;48.722;9.316;2023-05-07T08:59:01;40.80;53.30
70475;DHT22;57944;48.722;9.316;2023-05-07T09:01:31;38.90;55.50
70475;DHT22;57944;48.722;9.316;2023-05-07T09:04:03;37.90;55.90
70475;DHT22;57944;48.722;9.316;2023-05-07T09:06:34;37.80;57.10
70475;DHT22;57944;48.722;9.316;2023-05-07T09:09:04;38.80;56.30
70475;DHT22;57944;48.722;9.316;2023-05-07T09:11:35;38.60;55.90
70475;DHT22;57944;48.722;9.316;2023-05-07T09:14:07;39.70;55.40
70475;DHT22;57944;48.722;9.316;2023-05-07T09:16:40;40.00;53.90
70475;DHT22;57944;48.722;9.316;2023-05-07T09:19:11;40.30;53.70
70475;DHT22;57944;48.722;9.316;2023-05-07T09:21:44;39.40;52.50
70475;DHT22;57944;48.722;9.316;2023-05-07T09:24:15;38.60;53.40
70475;DHT22;57944;48.722;9.316;2023-05-07T09:26:45;38.60;53.90
70475;DHT22;57944;48.722;9.316;2023-05-07T09:29:18;39.60;53.60
70475;DHT22;57944;48.722;9.316;2023-05-07T09:31:48;39.10;53.10
70475;DHT22;57944;48.722;9.316;2023-05-07T09:34:18;39.20;53.50
70475;DHT22;57944;48.722;9.316;2023-05-07T09:36:49;39.80;53.20
70475;DHT22;57944;48.722;9.316;2023-05-07T09:39:19;39.70;52.30
70475;DHT22;57944;48.722;9.316;2023-05-07T09:41:49;40.10;52.20
70475;DHT22;57944;48.722;9.316;2023-05-07T09:44:33;38.40;53.40
70475;DHT22;57944;48.722;9.316;2023-05-07T09:47:07;37.60;54.10
70475;DHT22;57944;48.722;9.316;2023-05-07T09:49:43;37.20;54.60
70475;DHT22;57944;48.722;9.316;2023-05-07T09:52:20;38.30;53.80
70475;DHT22;57944;48.722;9.316;2023-05-07T09:54:53;38.20;54.00
70475;DHT22;57944;48.722;9.316;2023-05-07T09:57:29;37.80;54.10
70475;DHT22;57944;48.722;9.316;2023-05-07T10:00:07;37.30;54.50
70475;DHT22;57944;48.722;9.316;2023-05-07T10:02:54;37.10;54.80
70475;DHT22;57944;48.722;9.316;2023-05-07T10:05:36;36.80;56.00
70475;DHT22;57944;48.722;9.316;2023-05-07T10:08:07;37.10;54.90
70475;DHT22;57944;48.722;9.316;2023-05-07T10:10:39;37.10;54.10
70475;DHT22;57944;48.722;9.316;2023-05-07T10:13:14;38.40;52.80
70475;DHT22;57944;48.722;9.316;2023-05-07T10:15:51;39.20;53.10
70475;DHT22;57944;48.722;9.316;2023-05-07T10:18:24;37.90;53.50
70475;DHT22;57944;48.722;9.316;2023-05-07T10:21:07;37.50;53.00
70475;DHT22;57944;48.722;9.316;2023-05-07T10:23:40;36.90;53.40
70475;DHT22;57944;48.722;9.316;2023-05-07T10:26:14;38.00;53.40
70475;DHT22;57944;48.722;9.316;2023-05-07T10:28:49;39.20;52.00
70475;DHT22;57944;48.722;9.316;2023-05-07T10:34:26;40.20;50.60
70475;DHT22;57944;48.722;9.316;2023-05-07T10:37:02;40.50;48.60
70475;DHT22;57944;48.722;9.316;2023-05-07T10:39:33;38.20;49.40
70475;DHT22;57944;48.722;9.316;2023-05-07T10:42:07;35.90;52.40
70475;DHT22;57944;48.722;9.316;2023-05-07T10:44:42;34.60;54.30
70475;DHT22;57944;48.722;9.316;2023-05-07T10:47:22;34.40;54.20
70475;DHT22;57944;48.722;9.316;2023-05-07T11:02:19;39.80;49.80
70475;DHT22;57944;48.722;9.316;2023-05-07T11:08:05;37.50;49.90
70475;DHT22;57944;48.722;9.316;2023-05-07T11:10:52;36.50;50.20
70475;DHT22;57944;48.722;9.316;2023-05-07T11:13:42;36.40;52.40
70475;DHT22;57944;48.722;9.316;2023-05-07T11:16:27;35.90;52.50
70475;DHT22;57944;48.722;9.316;2023-05-07T11:19:06;35.70;52.00
70475;DHT22;57944;48.722;9.316;2023-05-07T11:21:44;36.40;51.40
70475;DHT22;57944;48.722;9.316;2023-05-07T11:24:39;37.30;50.70
70475;DHT22;57944;48.722;9.316;2023-05-07T11:27:11;37.80;50.00
70475;DHT22;57944;48.722;9.316;2023-05-07T11:29:44;36.50;51.00
70475;DHT22;57944;48.722;9.316;2023-05-07T11:32:21;35.60;52.40
70475;DHT22;57944;48.722;9.316;2023-05-07T11:34:53;35.50;52.00
70475;DHT22;57944;48.722;9.316;2023-05-07T11:37:27;35.50;52.10
70475;DHT22;57944;48.722;9.316;2023-05-07T11:40:02;36.70;51.30
70475;DHT22;57944;48.722;9.316;2023-05-07T11:42:33;35.60;51.60
70475;DHT22;57944;48.722;9.316;2023-05-07T11:45:05;35.70;51.10
70475;DHT22;57944;48.722;9.316;2023-05-07T11:47:37;37.10;50.40
70475;DHT22;57944;48.722;9.316;2023-05-07T11:50:09;37.70;49.70
70475;DHT22;57944;48.722;9.316;2023-05-07T11:52:49;37.00;49.40
70475;DHT22;57944;48.722;9.316;2023-05-07T11:55:20;36.00;49.70
70475;DHT22;57944;48.722;9.316;2023-05-07T11:57:50;35.20;49.40
70475;DHT22;57944;48.722;9.316;2023-05-07T12:00:20;33.10;51.10
70475;DHT22;57944;48.722;9.316;2023-05-07T12:02:50;32.20;51.60
70475;DHT22;57944;48.722;9.316;2023-05-07T12:05:20;32.10;52.10
70475;DHT22;57944;48.722;9.316;2023-05-07T12:07:57;31.90;53.50
70475;DHT22;57944;48.722;9.316;2023-05-07T12:10:27;31.80;53.70
70475;DHT22;57944;48.722;9.316;2023-05-07T12:12:57;31.50;54.10
70475;DHT22;57944;48.722;9.316;2023-05-07T12:15:27;31.10;53.80
70475;DHT22;57944;48.722;9.316;2023-05-07T12:17:57;30.50;53.80
70475;DHT22;57944;48.722;9.316;2023-05-07T12:20:27;30.30;55.10
70475;DHT22;57944;48.722;9.316;2023-05-07T12:23:00;30.30;56.70
70475;DHT22;57944;48.722;9.316;2023-05-07T12:25:30;29.60;58.10
70475;DHT22;57944;48.722;9.316;2023-05-07T12:28:00;28.80;59.30
70475;DHT22;57944;48.722;9.316;2023-05-07T12:30:31;27.80;63.00
70475;DHT22;57944;48.722;9.316;2023-05-07T12:33:02;27.60;62.70
70475;DHT22;57944;48.722;9.316;2023-05-07T12:35:32;27.50;63.20
70475;DHT22;57944;48.722;9.316;2023-05-07T12:38:10;27.10;65.10
70475;DHT22;57944;48.722;9.316;2023-05-07T12:40:42;26.20;69.40
70475;DHT22;57944;48.722;9.316;2023-05-07T12:43:15;25.40;73.90
70475;DHT22;57944;48.722;9.316;2023-05-07T12:45:46;24.60;79.10
70475;DHT22;57944;48.722;9.316;2023-05-07T12:48:19;24.00;82.40
70475;DHT22;57944;48.722;9.316;2023-05-07T12:50:49;23.80;84.40
70475;DHT22;57944;48.722;9.316;2023-05-07T12:53:23;23.60;85.60
70475;DHT22;57944;48.722;9.316;2023-05-07T12:55:54;23.40;87.10
70475;DHT22;57944;48.722;9.316;2023-05-07T12:58:27;23.20;86.50
70475;DHT22;57944;48.722;9.316;2023-05-07T13:01:00;22.90;86.80
70475;DHT22;57944;48.722;9.316;2023-05-07T13:03:33;22.70;87.50
70475;DHT22;57944;48.722;9.316;2023-05-07T13:06:05;22.30;93.60
70475;DHT22;57944;48.722;9.316;2023-05-07T13:08:41;21.50;99.90
70475;DHT22;57944;48.722;9.316;2023-05-07T13:11:12;20.60;99.90
70475;DHT22;57944;48.722;9.316;2023-05-07T13:13:42;19.80;99.90
70475;DHT22;57944;48.722;9.316;2023-05-07T13:16:12;18.60;99.90
70475;DHT22;57944;48.722;9.316;2023-05-07T13:18:42;17.40;99.90
70475;DHT22;57944;48.722;9.316;2023-05-07T13:21:13;16.80;99.90
70475;DHT22;57944;48.722;9.316;2023-05-07T13:23:45;16.30;99.90
70475;DHT22;57944;48.722;9.316;2023-05-07T13:26:15;16.00;99.90
70475;DHT22;57944;48.722;9.316;2023-05-07T13:28:52;15.70;99.90
70475;DHT22;57944;48.722;9.316;2023-05-07T13:31:22;15.50;99.90
70475;DHT22;57944;48.722;9.316;2023-05-07T13:33:53;15.30;99.90
70475;DHT22;57944;48.722;9.316;2023-05-07T13:36:23;15.20;99.90
70475;DHT22;57944;48.722;9.316;2023-05-07T13:38:56;15.10;99.90
70475;DHT22;57944;48.722;9.316;2023-05-07T13:41:27;15.10;99.90
70475;DHT22;57944;48.722;9.316;2023-05-07T13:43:57;15.10;99.90
70475;DHT22;57944;48.722;9.316;2023-05-07T13:46:27;15.00;99.90
70475;DHT22;57944;48.722;9.316;2023-05-07T13:48:57;14.80;99.90
70475;DHT22;57944;48.722;9.316;2023-05-07T13:51:27;14.70;99.90
70475;DHT22;57944;48.722;9.316;2023-05-07T13:53:59;14.60;99.90
70475;DHT22;57944;48.722;9.316;2023-05-07T13:56:29;14.50;99.90
70475;DHT22;57944;48.722;9.316;2023-05-07T13:59:00;14.40;99.90
70475;DHT22;57944;48.722;9.316;2023-05-07T14:01:30;14.30;99.90
70475;DHT22;57944;48.722;9.316;2023-05-07T14:04:00;14.40;99.90
70475;DHT22;57944;48.722;9.316;2023-05-07T14:06:30;14.40;99.90
70475;DHT22;57944;48.722;9.316;2023-05-07T14:09:03;14.50;99.90
70475;DHT22;57944;48.722;9.316;2023-05-07T14:11:33;14.60;99.90
70475;DHT22;57944;48.722;9.316;2023-05-07T14:14:03;14.50;99.90
70475;DHT22;57944;48.722;9.316;2023-05-07T14:16:33;14.50;99.90
70475;DHT22;57944;48.722;9.316;2023-05-07T14:19:03;14.50;99.90
70475;DHT22;57944;48.722;9.316;2023-05-07T14:21:33;14.50;99.90
70475;DHT22;57944;48.722;9.316;2023-05-07T14:24:05;14.50;99.90
70475;DHT22;57944;48.722;9.316;2023-05-07T14:26:36;14.50;99.90
70475;DHT22;57944;48.722;9.316;2023-05-07T14:29:06;14.60;99.90
70475;DHT22;57944;48.722;9.316;2023-05-07T14:31:36;14.60;99.90
70475;DHT22;57944;48.722;9.316;2023-05-07T14:34:06;14.60;99.90
70475;DHT22;57944;48.722;9.316;2023-05-07T14:36:36;14.70;99.90
70475;DHT22;57944;48.722;9.316;2023-05-07T14:39:09;14.60;99.90
70475;DHT22;57944;48.722;9.316;2023-05-07T14:41:40;14.60;99.90
70475;DHT22;57944;48.722;9.316;2023-05-07T14:44:10;14.70;99.90
70475;DHT22;57944;48.722;9.316;2023-05-07T14:46:40;14.70;99.90
70475;DHT22;57944;48.722;9.316;2023-05-07T14:49:10;14.80;99.90
70475;DHT22;57944;48.722;9.316;2023-05-07T14:51:43;14.80;99.90
70475;DHT22;57944;48.722;9.316;2023-05-07T14:54:16;14.90;99.90
70475;DHT22;57944;48.722;9.316;2023-05-07T14:56:46;14.90;99.90
70475;DHT22;57944;48.722;9.316;2023-05-07T14:59:17;14.90;99.90
70475;DHT22;57944;48.722;9.316;2023-05-07T15:01:47;14.90;99.90
70475;DHT22;57944;48.722;9.316;2023-05-07T15:04:18;14.90;99.90
70475;DHT22;57944;48.722;9.316;2023-05-07T15:06:47;15.00;99.90
70475;DHT22;57944;48.722;9.316;2023-05-07T15:09:21;15.00;99.90
70475;DHT22;57944;48.722;9.316;2023-05-07T15:11:51;15.00;99.90
70475;DHT22;57944;48.722;9.316;2023-05-07T15:14:21;15.00;99.90
70475;DHT22;57944;48.722;9.316;2023-05-07T15:16:51;15.00;99.90
70475;DHT22;57944;48.722;9.316;2023-05-07T15:19:21;14.90;99.90
70475;DHT22;57944;48.722;9.316;2023-05-07T15:21:56;15.00;99.90
70475;DHT22;57944;48.722;9.316;2023-05-07T15:24:31;15.10;99.90
70475;DHT22;57944;48.722;9.316;2023-05-07T15:27:02;15.10;99.90
70475;DHT22;57944;48.722;9.316;2023-05-07T15:29:32;15.20;99.90
70475;DHT22;57944;48.722;9.316;2023-05-07T15:32:02;15.40;99.90
70475;DHT22;57944;48.722;9.316;2023-05-07T15:34:32;15.50;99.90
70475;DHT22;57944;48.722;9.316;2023-05-07T15:37:02;15.40;99.90
70475;DHT22;57944;48.722;9.316;2023-05-07T15:39:35;15.30;99.90
70475;DHT22;57944;48.722;9.316;2023-05-07T15:42:05;15.50;99.90
70475;DHT22;57944;48.722;9.316;2023-05-07T15:44:35;15.50;99.90
70475;DHT22;57944;48.722;9.316;2023-05-07T15:47:06;15.40;99.90
70475;DHT22;57944;48.722;9.316;2023-05-07T15:49:36;15.50;99.90
70475;DHT22;57944;48.722;9.316;2023-05-07T15:52:06;15.60;99.90
70475;DHT22;57944;48.722;9.316;2023-05-07T15:54:39;15.70;99.90
70475;DHT22;57944;48.722;9.316;2023-05-07T15:57:09;15.80;99.90
70475;DHT22;57944;48.722;9.316;2023-05-07T15:59:39;15.80;99.90
70475;DHT22;57944;48.722;9.316;2023-05-07T16:02:09;15.80;99.90
70475;DHT22;57944;48.722;9.316;2023-05-07T16:04:42;15.60;99.90
70475;DHT22;57944;48.722;9.316;2023-05-07T16:07:13;15.60;99.90
70475;DHT22;57944;48.722;9.316;2023-05-07T16:09:45;15.70;99.90
70475;DHT22;57944;48.722;9.316;2023-05-07T16:12:15;15.70;99.90
70475;DHT22;57944;48.722;9.316;2023-05-07T16:14:46;15.70;99.90
70475;DHT22;57944;48.722;9.316;2023-05-07T16:17:17;15.70;99.90
70475;DHT22;57944;48.722;9.316;2023-05-07T16:19:48;15.50;99.90
70475;DHT22;57944;48.722;9.316;2023-05-07T16:22:19;15.50;99.90
70475;DHT22;57944;48.722;9.316;2023-05-07T16:24:54;15.40;99.90
70475;DHT22;57944;48.722;9.316;2023-05-07T16:27:24;15.30;99.90
70475;DHT22;57944;48.722;9.316;2023-05-07T16:29:53;15.20;99.90